Jasper, Ohio
Current Conditions -  °F | °C
As of 1:35 PM on Sunday 25 Jan 2015 (Local Time) from KRZT Reporting Station
Broken Clouds Broken Clouds  
Wind Chill: 37°   Ceiling: 8500
Heat Index: 37°   Visibility: 10mi
Dew Point: 32°   Wind: 3mph
Humidity: 81%   Direction: 190°S
Pressure: 29.72"   Gusts: NA
Location:  39.05°N, 83.06°W
Report Text: KRZT 251835Z AUTO 19003KT 10SM SCT055 BKN085 03/00 A2972 RMK AO2
Loading
Personal Weather Stations






























Interactive Weather Map New forecast layout! Learn more

10-Day Weather Forecast

Advertisements
Track Severe Weather on mobile